sensor_id;sensor_type;location;lat;lon;timestamp;P1;durP1;ratioP1;P2;durP2;ratioP2
21036;SDS011;10677;50.942;4.028;2022-12-07T00:00:53;14.10;;;9.18;;
21036;SDS011;10677;50.942;4.028;2022-12-07T00:03:19;16.67;;;8.90;;
21036;SDS011;10677;50.942;4.028;2022-12-07T00:05:45;16.15;;;9.23;;
21036;SDS011;10677;50.942;4.028;2022-12-07T00:08:10;16.13;;;9.38;;
21036;SDS011;10677;50.942;4.028;2022-12-07T00:10:36;17.33;;;9.50;;
21036;SDS011;10677;50.942;4.028;2022-12-07T00:13:02;18.23;;;9.32;;
21036;SDS011;10677;50.942;4.028;2022-12-07T00:15:27;17.50;;;8.70;;
21036;SDS011;10677;50.942;4.028;2022-12-07T00:17:53;13.07;;;8.27;;
21036;SDS011;10677;50.942;4.028;2022-12-07T00:20:19;15.55;;;8.98;;
21036;SDS011;10677;50.942;4.028;2022-12-07T00:22:44;13.23;;;8.68;;
21036;SDS011;10677;50.942;4.028;2022-12-07T00:25:10;16.90;;;9.40;;
21036;SDS011;10677;50.942;4.028;2022-12-07T00:27:36;13.70;;;8.95;;
21036;SDS011;10677;50.942;4.028;2022-12-07T00:30:01;11.18;;;8.15;;
21036;SDS011;10677;50.942;4.028;2022-12-07T00:32:29;15.15;;;9.02;;
21036;SDS011;10677;50.942;4.028;2022-12-07T00:34:54;17.63;;;8.48;;
21036;SDS011;10677;50.942;4.028;2022-12-07T00:37:20;12.80;;;8.10;;
21036;SDS011;10677;50.942;4.028;2022-12-07T00:39:46;17.38;;;8.98;;
21036;SDS011;10677;50.942;4.028;2022-12-07T00:42:11;20.00;;;9.32;;
21036;SDS011;10677;50.942;4.028;2022-12-07T00:44:37;12.77;;;8.70;;
21036;SDS011;10677;50.942;4.028;2022-12-07T00:47:05;15.63;;;8.50;;
21036;SDS011;10677;50.942;4.028;2022-12-07T00:49:31;13.48;;;7.75;;
21036;SDS011;10677;50.942;4.028;2022-12-07T00:51:56;14.05;;;8.38;;
21036;SDS011;10677;50.942;4.028;2022-12-07T00:54:22;12.82;;;7.70;;
21036;SDS011;10677;50.942;4.028;2022-12-07T00:56:48;14.88;;;7.40;;
21036;SDS011;10677;50.942;4.028;2022-12-07T00:59:14;15.15;;;8.75;;
21036;SDS011;10677;50.942;4.028;2022-12-07T01:01:40;14.70;;;7.20;;
21036;SDS011;10677;50.942;4.028;2022-12-07T01:04:05;14.63;;;7.47;;
21036;SDS011;10677;50.942;4.028;2022-12-07T01:06:31;15.43;;;7.72;;
21036;SDS011;10677;50.942;4.028;2022-12-07T01:08:57;10.52;;;7.15;;
21036;SDS011;10677;50.942;4.028;2022-12-07T01:11:24;11.55;;;6.72;;
21036;SDS011;10677;50.942;4.028;2022-12-07T01:13:53;12.05;;;7.00;;
21036;SDS011;10677;50.942;4.028;2022-12-07T01:16:20;13.95;;;7.80;;
21036;SDS011;10677;50.942;4.028;2022-12-07T01:18:49;13.98;;;7.25;;
21036;SDS011;10677;50.942;4.028;2022-12-07T01:21:18;11.05;;;6.30;;
21036;SDS011;10677;50.942;4.028;2022-12-07T01:23:56;12.88;;;6.47;;
21036;SDS011;10677;50.942;4.028;2022-12-07T01:26:23;13.35;;;6.80;;
21036;SDS011;10677;50.942;4.028;2022-12-07T01:28:51;13.27;;;6.97;;
21036;SDS011;10677;50.942;4.028;2022-12-07T01:31:23;10.27;;;5.60;;
21036;SDS011;10677;50.942;4.028;2022-12-07T01:33:52;12.95;;;6.63;;
21036;SDS011;10677;50.942;4.028;2022-12-07T01:36:20;13.00;;;6.93;;
21036;SDS011;10677;50.942;4.028;2022-12-07T01:38:49;12.75;;;6.07;;
21036;SDS011;10677;50.942;4.028;2022-12-07T01:41:18;12.30;;;5.50;;
21036;SDS011;10677;50.942;4.028;2022-12-07T01:46:36;9.77;;;5.70;;
21036;SDS011;10677;50.942;4.028;2022-12-07T01:49:03;11.23;;;5.43;;
21036;SDS011;10677;50.942;4.028;2022-12-07T01:51:33;10.82;;;5.78;;
21036;SDS011;10677;50.942;4.028;2022-12-07T01:54:00;7.75;;;5.10;;
21036;SDS011;10677;50.942;4.028;2022-12-07T01:56:26;9.25;;;5.22;;
21036;SDS011;10677;50.942;4.028;2022-12-07T01:58:53;9.05;;;5.22;;
21036;SDS011;10677;50.942;4.028;2022-12-07T02:01:20;9.82;;;5.03;;
21036;SDS011;10677;50.942;4.028;2022-12-07T02:03:47;10.77;;;5.40;;
21036;SDS011;10677;50.942;4.028;2022-12-07T02:06:15;10.15;;;5.20;;
21036;SDS011;10677;50.942;4.028;2022-12-07T02:08:44;11.35;;;5.60;;
21036;SDS011;10677;50.942;4.028;2022-12-07T02:11:10;11.20;;;5.72;;
21036;SDS011;10677;50.942;4.028;2022-12-07T02:13:38;10.65;;;5.40;;
21036;SDS011;10677;50.942;4.028;2022-12-07T02:16:25;11.13;;;5.07;;
21036;SDS011;10677;50.942;4.028;2022-12-07T02:19:33;11.05;;;5.22;;
21036;SDS011;10677;50.942;4.028;2022-12-07T02:24:48;9.80;;;4.65;;
21036;SDS011;10677;50.942;4.028;2022-12-07T02:27:29;12.80;;;5.68;;
21036;SDS011;10677;50.942;4.028;2022-12-07T02:30:03;11.40;;;5.82;;
21036;SDS011;10677;50.942;4.028;2022-12-07T02:35:11;15.20;;;5.55;;
21036;SDS011;10677;50.942;4.028;2022-12-07T02:37:57;10.95;;;5.35;;
21036;SDS011;10677;50.942;4.028;2022-12-07T02:43:26;10.48;;;5.72;;
21036;SDS011;10677;50.942;4.028;2022-12-07T02:46:03;15.60;;;6.28;;
21036;SDS011;10677;50.942;4.028;2022-12-07T02:48:33;12.15;;;6.55;;
21036;SDS011;10677;50.942;4.028;2022-12-07T02:51:00;12.02;;;6.22;;
21036;SDS011;10677;50.942;4.028;2022-12-07T02:53:39;14.15;;;6.50;;
21036;SDS011;10677;50.942;4.028;2022-12-07T02:56:12;16.85;;;6.90;;
21036;SDS011;10677;50.942;4.028;2022-12-07T03:01:09;14.90;;;6.65;;
21036;SDS011;10677;50.942;4.028;2022-12-07T03:04:05;14.85;;;7.20;;
21036;SDS011;10677;50.942;4.028;2022-12-07T03:07:06;14.65;;;7.47;;
21036;SDS011;10677;50.942;4.028;2022-12-07T03:09:48;13.80;;;8.05;;
21036;SDS011;10677;50.942;4.028;2022-12-07T03:12:53;14.68;;;8.65;;
21036;SDS011;10677;50.942;4.028;2022-12-07T03:15:25;13.57;;;8.05;;
21036;SDS011;10677;50.942;4.028;2022-12-07T03:17:56;17.83;;;9.45;;
21036;SDS011;10677;50.942;4.028;2022-12-07T03:20:24;18.33;;;9.52;;
21036;SDS011;10677;50.942;4.028;2022-12-07T03:22:52;18.33;;;9.40;;
21036;SDS011;10677;50.942;4.028;2022-12-07T03:25:19;19.63;;;9.60;;
21036;SDS011;10677;50.942;4.028;2022-12-07T03:30:18;17.75;;;9.30;;
21036;SDS011;10677;50.942;4.028;2022-12-07T03:35:26;15.82;;;10.05;;
21036;SDS011;10677;50.942;4.028;2022-12-07T03:38:06;15.27;;;9.73;;
21036;SDS011;10677;50.942;4.028;2022-12-07T03:40:38;15.75;;;9.82;;
21036;SDS011;10677;50.942;4.028;2022-12-07T03:43:17;21.08;;;9.65;;
21036;SDS011;10677;50.942;4.028;2022-12-07T03:45:45;16.75;;;11.05;;
21036;SDS011;10677;50.942;4.028;2022-12-07T03:51:00;18.52;;;10.32;;
21036;SDS011;10677;50.942;4.028;2022-12-07T03:53:37;18.65;;;12.23;;
21036;SDS011;10677;50.942;4.028;2022-12-07T03:56:08;18.20;;;10.55;;
21036;SDS011;10677;50.942;4.028;2022-12-07T03:58:35;20.05;;;11.15;;
21036;SDS011;10677;50.942;4.028;2022-12-07T04:01:02;16.17;;;10.82;;
21036;SDS011;10677;50.942;4.028;2022-12-07T04:03:28;23.35;;;10.88;;
21036;SDS011;10677;50.942;4.028;2022-12-07T04:05:55;23.92;;;11.02;;
21036;SDS011;10677;50.942;4.028;2022-12-07T04:08:21;21.92;;;11.10;;
21036;SDS011;10677;50.942;4.028;2022-12-07T04:10:46;18.75;;;10.63;;
21036;SDS011;10677;50.942;4.028;2022-12-07T04:13:12;20.60;;;11.48;;
21036;SDS011;10677;50.942;4.028;2022-12-07T04:15:38;17.67;;;10.88;;
21036;SDS011;10677;50.942;4.028;2022-12-07T04:18:03;21.15;;;9.75;;
21036;SDS011;10677;50.942;4.028;2022-12-07T04:20:29;17.13;;;9.55;;
21036;SDS011;10677;50.942;4.028;2022-12-07T04:22:55;16.83;;;8.90;;
21036;SDS011;10677;50.942;4.028;2022-12-07T04:25:20;14.90;;;9.23;;
21036;SDS011;10677;50.942;4.028;2022-12-07T04:27:46;26.55;;;10.80;;
21036;SDS011;10677;50.942;4.028;2022-12-07T04:30:12;18.83;;;10.20;;
21036;SDS011;10677;50.942;4.028;2022-12-07T04:32:38;17.23;;;9.50;;
21036;SDS011;10677;50.942;4.028;2022-12-07T04:35:05;21.73;;;10.70;;
21036;SDS011;10677;50.942;4.028;2022-12-07T04:37:31;15.90;;;9.15;;
21036;SDS011;10677;50.942;4.028;2022-12-07T04:39:57;24.30;;;9.95;;
21036;SDS011;10677;50.942;4.028;2022-12-07T04:42:23;22.02;;;10.20;;
21036;SDS011;10677;50.942;4.028;2022-12-07T04:44:48;17.67;;;9.63;;
21036;SDS011;10677;50.942;4.028;2022-12-07T04:47:14;19.23;;;10.30;;
21036;SDS011;10677;50.942;4.028;2022-12-07T04:49:40;15.57;;;9.10;;
21036;SDS011;10677;50.942;4.028;2022-12-07T04:52:05;16.52;;;9.75;;
21036;SDS011;10677;50.942;4.028;2022-12-07T04:54:31;16.52;;;9.73;;
21036;SDS011;10677;50.942;4.028;2022-12-07T04:56:56;23.33;;;14.13;;
21036;SDS011;10677;50.942;4.028;2022-12-07T04:59:22;22.35;;;11.10;;
21036;SDS011;10677;50.942;4.028;2022-12-07T05:01:48;22.58;;;10.38;;
21036;SDS011;10677;50.942;4.028;2022-12-07T05:04:13;16.70;;;9.75;;
21036;SDS011;10677;50.942;4.028;2022-12-07T05:06:41;21.20;;;10.00;;
21036;SDS011;10677;50.942;4.028;2022-12-07T05:09:07;16.70;;;9.77;;
21036;SDS011;10677;50.942;4.028;2022-12-07T05:11:33;20.08;;;10.23;;
21036;SDS011;10677;50.942;4.028;2022-12-07T05:14:15;17.40;;;9.32;;
21036;SDS011;10677;50.942;4.028;2022-12-07T05:16:43;19.88;;;9.60;;
21036;SDS011;10677;50.942;4.028;2022-12-07T05:19:10;17.45;;;8.90;;
21036;SDS011;10677;50.942;4.028;2022-12-07T05:21:36;15.25;;;8.90;;
21036;SDS011;10677;50.942;4.028;2022-12-07T05:24:04;18.63;;;10.07;;
21036;SDS011;10677;50.942;4.028;2022-12-07T05:26:30;16.48;;;9.02;;
21036;SDS011;10677;50.942;4.028;2022-12-07T05:28:59;15.57;;;9.05;;
21036;SDS011;10677;50.942;4.028;2022-12-07T05:31:25;19.83;;;9.43;;
21036;SDS011;10677;50.942;4.028;2022-12-07T05:33:51;16.90;;;8.25;;
21036;SDS011;10677;50.942;4.028;2022-12-07T05:36:17;14.18;;;8.20;;
21036;SDS011;10677;50.942;4.028;2022-12-07T05:38:43;23.05;;;9.23;;
21036;SDS011;10677;50.942;4.028;2022-12-07T05:41:09;11.73;;;7.30;;
21036;SDS011;10677;50.942;4.028;2022-12-07T05:43:59;11.85;;;6.60;;
21036;SDS011;10677;50.942;4.028;2022-12-07T05:46:24;14.85;;;6.82;;
21036;SDS011;10677;50.942;4.028;2022-12-07T05:48:50;11.65;;;6.70;;
21036;SDS011;10677;50.942;4.028;2022-12-07T05:51:16;13.25;;;7.53;;
21036;SDS011;10677;50.942;4.028;2022-12-07T05:53:42;18.00;;;6.85;;
21036;SDS011;10677;50.942;4.028;2022-12-07T05:56:08;14.23;;;7.47;;
21036;SDS011;10677;50.942;4.028;2022-12-07T05:58:33;15.05;;;7.85;;
21036;SDS011;10677;50.942;4.028;2022-12-07T06:01:17;14.50;;;7.50;;
21036;SDS011;10677;50.942;4.028;2022-12-07T06:03:43;15.70;;;7.28;;
21036;SDS011;10677;50.942;4.028;2022-12-07T06:06:10;19.10;;;7.15;;
21036;SDS011;10677;50.942;4.028;2022-12-07T06:08:35;14.73;;;7.82;;
21036;SDS011;10677;50.942;4.028;2022-12-07T06:11:01;17.35;;;7.15;;
21036;SDS011;10677;50.942;4.028;2022-12-07T06:13:45;13.90;;;7.60;;
21036;SDS011;10677;50.942;4.028;2022-12-07T06:16:11;12.02;;;6.70;;
21036;SDS011;10677;50.942;4.028;2022-12-07T06:18:37;16.20;;;7.53;;
21036;SDS011;10677;50.942;4.028;2022-12-07T06:21:02;15.07;;;7.07;;
21036;SDS011;10677;50.942;4.028;2022-12-07T06:23:28;16.88;;;7.50;;
21036;SDS011;10677;50.942;4.028;2022-12-07T06:25:54;14.18;;;6.13;;
21036;SDS011;10677;50.942;4.028;2022-12-07T06:28:19;14.25;;;6.28;;
21036;SDS011;10677;50.942;4.028;2022-12-07T06:30:45;13.18;;;8.07;;
21036;SDS011;10677;50.942;4.028;2022-12-07T06:33:11;18.65;;;7.47;;
21036;SDS011;10677;50.942;4.028;2022-12-07T06:35:39;12.93;;;6.20;;
21036;SDS011;10677;50.942;4.028;2022-12-07T06:38:05;13.70;;;6.78;;
21036;SDS011;10677;50.942;4.028;2022-12-07T06:40:30;10.82;;;6.15;;
21036;SDS011;10677;50.942;4.028;2022-12-07T06:42:56;13.85;;;6.43;;
21036;SDS011;10677;50.942;4.028;2022-12-07T06:45:22;15.07;;;6.25;;
21036;SDS011;10677;50.942;4.028;2022-12-07T06:47:47;11.98;;;5.82;;
21036;SDS011;10677;50.942;4.028;2022-12-07T06:50:13;12.90;;;6.38;;
21036;SDS011;10677;50.942;4.028;2022-12-07T06:52:39;15.10;;;5.93;;
21036;SDS011;10677;50.942;4.028;2022-12-07T06:55:05;11.70;;;6.32;;
21036;SDS011;10677;50.942;4.028;2022-12-07T06:57:31;11.13;;;5.78;;
21036;SDS011;10677;50.942;4.028;2022-12-07T06:59:57;12.13;;;6.18;;
21036;SDS011;10677;50.942;4.028;2022-12-07T07:02:22;11.40;;;6.03;;
21036;SDS011;10677;50.942;4.028;2022-12-07T07:04:50;12.65;;;6.03;;
21036;SDS011;10677;50.942;4.028;2022-12-07T07:07:16;11.75;;;5.93;;
21036;SDS011;10677;50.942;4.028;2022-12-07T07:09:41;23.63;;;13.15;;
21036;SDS011;10677;50.942;4.028;2022-12-07T07:12:07;14.05;;;6.07;;
21036;SDS011;10677;50.942;4.028;2022-12-07T07:14:34;13.05;;;5.82;;
21036;SDS011;10677;50.942;4.028;2022-12-07T07:17:00;11.48;;;5.75;;
21036;SDS011;10677;50.942;4.028;2022-12-07T07:19:25;11.18;;;5.85;;
21036;SDS011;10677;50.942;4.028;2022-12-07T07:21:51;14.63;;;5.57;;
21036;SDS011;10677;50.942;4.028;2022-12-07T07:24:17;10.30;;;6.30;;
21036;SDS011;10677;50.942;4.028;2022-12-07T07:26:43;15.00;;;5.82;;
21036;SDS011;10677;50.942;4.028;2022-12-07T07:29:08;21.55;;;7.95;;
21036;SDS011;10677;50.942;4.028;2022-12-07T07:31:34;14.73;;;7.68;;
21036;SDS011;10677;50.942;4.028;2022-12-07T07:34:00;15.32;;;7.05;;
21036;SDS011;10677;50.942;4.028;2022-12-07T07:36:26;14.60;;;7.00;;
21036;SDS011;10677;50.942;4.028;2022-12-07T07:38:52;13.30;;;6.95;;
21036;SDS011;10677;50.942;4.028;2022-12-07T07:41:18;18.13;;;7.43;;
21036;SDS011;10677;50.942;4.028;2022-12-07T07:47:21;14.88;;;6.85;;
21036;SDS011;10677;50.942;4.028;2022-12-07T07:49:50;16.02;;;8.00;;
21036;SDS011;10677;50.942;4.028;2022-12-07T07:52:21;14.70;;;7.68;;
21036;SDS011;10677;50.942;4.028;2022-12-07T07:57:44;16.98;;;8.07;;
21036;SDS011;10677;50.942;4.028;2022-12-07T08:00:27;17.27;;;8.45;;
21036;SDS011;10677;50.942;4.028;2022-12-07T08:03:22;16.50;;;8.48;;
21036;SDS011;10677;50.942;4.028;2022-12-07T08:05:56;16.35;;;8.10;;
21036;SDS011;10677;50.942;4.028;2022-12-07T08:08:38;16.95;;;7.90;;
21036;SDS011;10677;50.942;4.028;2022-12-07T08:11:16;14.35;;;8.15;;
21036;SDS011;10677;50.942;4.028;2022-12-07T08:14:07;17.25;;;8.57;;
21036;SDS011;10677;50.942;4.028;2022-12-07T08:16:53;16.77;;;7.88;;
21036;SDS011;10677;50.942;4.028;2022-12-07T08:19:48;15.98;;;8.35;;
21036;SDS011;10677;50.942;4.028;2022-12-07T08:22:14;14.57;;;8.23;;
21036;SDS011;10677;50.942;4.028;2022-12-07T08:27:56;17.33;;;7.75;;
21036;SDS011;10677;50.942;4.028;2022-12-07T08:30:37;15.95;;;7.45;;
21036;SDS011;10677;50.942;4.028;2022-12-07T08:33:37;17.90;;;8.75;;
21036;SDS011;10677;50.942;4.028;2022-12-07T08:36:33;15.95;;;7.57;;
21036;SDS011;10677;50.942;4.028;2022-12-07T08:39:15;17.38;;;8.10;;
21036;SDS011;10677;50.942;4.028;2022-12-07T08:42:28;16.52;;;7.88;;
21036;SDS011;10677;50.942;4.028;2022-12-07T08:47:58;12.50;;;7.32;;
21036;SDS011;10677;50.942;4.028;2022-12-07T08:50:57;17.85;;;8.18;;
21036;SDS011;10677;50.942;4.028;2022-12-07T08:53:52;15.82;;;7.38;;
21036;SDS011;10677;50.942;4.028;2022-12-07T08:56:55;20.40;;;7.57;;
21036;SDS011;10677;50.942;4.028;2022-12-07T08:59:31;11.80;;;7.32;;
21036;SDS011;10677;50.942;4.028;2022-12-07T09:02:04;12.70;;;6.63;;
21036;SDS011;10677;50.942;4.028;2022-12-07T09:04:46;14.45;;;6.88;;
21036;SDS011;10677;50.942;4.028;2022-12-07T09:10:31;30.17;;;16.08;;
21036;SDS011;10677;50.942;4.028;2022-12-07T09:12:59;13.15;;;6.63;;
21036;SDS011;10677;50.942;4.028;2022-12-07T09:15:28;9.98;;;5.85;;
21036;SDS011;10677;50.942;4.028;2022-12-07T09:17:58;15.18;;;6.45;;
21036;SDS011;10677;50.942;4.028;2022-12-07T09:20:30;16.63;;;6.40;;
21036;SDS011;10677;50.942;4.028;2022-12-07T09:23:00;12.32;;;5.55;;
21036;SDS011;10677;50.942;4.028;2022-12-07T09:25:37;11.40;;;5.60;;
21036;SDS011;10677;50.942;4.028;2022-12-07T09:28:14;15.00;;;5.07;;
21036;SDS011;10677;50.942;4.028;2022-12-07T09:30:48;9.40;;;4.78;;
21036;SDS011;10677;50.942;4.028;2022-12-07T09:33:16;13.85;;;5.32;;
21036;SDS011;10677;50.942;4.028;2022-12-07T09:35:45;8.68;;;4.60;;
21036;SDS011;10677;50.942;4.028;2022-12-07T09:38:44;9.85;;;4.88;;
21036;SDS011;10677;50.942;4.028;2022-12-07T09:41:27;10.80;;;4.85;;
21036;SDS011;10677;50.942;4.028;2022-12-07T09:44:21;11.80;;;4.88;;
21036;SDS011;10677;50.942;4.028;2022-12-07T09:46:57;12.48;;;5.07;;
21036;SDS011;10677;50.942;4.028;2022-12-07T09:49:24;11.75;;;4.53;;
21036;SDS011;10677;50.942;4.028;2022-12-07T09:54:37;8.50;;;4.10;;
21036;SDS011;10677;50.942;4.028;2022-12-07T09:57:21;8.20;;;3.95;;
21036;SDS011;10677;50.942;4.028;2022-12-07T09:59:54;11.95;;;4.25;;
21036;SDS011;10677;50.942;4.028;2022-12-07T10:02:43;14.45;;;4.68;;
21036;SDS011;10677;50.942;4.028;2022-12-07T10:05:24;14.70;;;4.70;;
21036;SDS011;10677;50.942;4.028;2022-12-07T10:07:55;14.55;;;5.20;;
21036;SDS011;10677;50.942;4.028;2022-12-07T10:10:40;10.43;;;4.60;;
21036;SDS011;10677;50.942;4.028;2022-12-07T10:13:12;7.32;;;4.18;;
21036;SDS011;10677;50.942;4.028;2022-12-07T10:15:56;11.10;;;4.05;;
21036;SDS011;10677;50.942;4.028;2022-12-07T10:26:50;11.27;;;4.30;;
21036;SDS011;10677;50.942;4.028;2022-12-07T10:29:18;14.63;;;4.88;;
21036;SDS011;10677;50.942;4.028;2022-12-07T10:31:54;10.30;;;4.15;;
21036;SDS011;10677;50.942;4.028;2022-12-07T10:34:24;9.75;;;4.40;;
21036;SDS011;10677;50.942;4.028;2022-12-07T10:37:17;9.27;;;3.95;;
21036;SDS011;10677;50.942;4.028;2022-12-07T10:39:49;7.38;;;3.97;;
21036;SDS011;10677;50.942;4.028;2022-12-07T10:47:48;8.55;;;3.03;;
21036;SDS011;10677;50.942;4.028;2022-12-07T10:55:20;6.13;;;2.40;;
21036;SDS011;10677;50.942;4.028;2022-12-07T10:58:23;8.32;;;3.22;;
21036;SDS011;10677;50.942;4.028;2022-12-07T11:08:51;13.75;;;6.63;;
21036;SDS011;10677;50.942;4.028;2022-12-07T11:14:36;9.38;;;2.75;;
21036;SDS011;10677;50.942;4.028;2022-12-07T11:17:35;8.48;;;2.20;;
21036;SDS011;10677;50.942;4.028;2022-12-07T11:23:21;6.57;;;1.90;;
21036;SDS011;10677;50.942;4.028;2022-12-07T11:31:47;4.72;;;1.58;;
21036;SDS011;10677;50.942;4.028;2022-12-07T11:34:28;7.72;;;1.92;;
21036;SDS011;10677;50.942;4.028;2022-12-07T11:37:13;5.40;;;1.90;;
21036;SDS011;10677;50.942;4.028;2022-12-07T11:40:11;6.80;;;1.80;;
21036;SDS011;10677;50.942;4.028;2022-12-07T11:42:41;6.43;;;1.85;;
21036;SDS011;10677;50.942;4.028;2022-12-07T11:45:19;10.93;;;2.10;;
21036;SDS011;10677;50.942;4.028;2022-12-07T11:53:03;7.13;;;1.40;;
21036;SDS011;10677;50.942;4.028;2022-12-07T12:01:31;8.05;;;2.05;;
21036;SDS011;10677;50.942;4.028;2022-12-07T12:06:48;9.98;;;3.00;;
21036;SDS011;10677;50.942;4.028;2022-12-07T12:14:45;7.72;;;3.60;;
21036;SDS011;10677;50.942;4.028;2022-12-07T12:22:44;8.65;;;3.13;;
21036;SDS011;10677;50.942;4.028;2022-12-07T12:28:24;8.20;;;2.65;;
21036;SDS011;10677;50.942;4.028;2022-12-07T12:31:15;6.05;;;2.70;;
21036;SDS011;10677;50.942;4.028;2022-12-07T12:33:57;10.23;;;3.03;;
21036;SDS011;10677;50.942;4.028;2022-12-07T12:47:11;4.57;;;1.08;;
21036;SDS011;10677;50.942;4.028;2022-12-07T13:00:43;3.75;;;1.20;;
21036;SDS011;10677;50.942;4.028;2022-12-07T13:03:32;5.13;;;1.42;;
21036;SDS011;10677;50.942;4.028;2022-12-07T13:06:41;6.15;;;1.15;;
21036;SDS011;10677;50.942;4.028;2022-12-07T13:08:51;4.18;;;1.30;;
21036;SDS011;10677;50.942;4.028;2022-12-07T13:11:24;7.03;;;1.92;;
21036;SDS011;10677;50.942;4.028;2022-12-07T13:13:52;5.00;;;2.13;;
21036;SDS011;10677;50.942;4.028;2022-12-07T13:16:57;4.07;;;2.00;;
21036;SDS011;10677;50.942;4.028;2022-12-07T13:27:34;5.93;;;2.40;;
21036;SDS011;10677;50.942;4.028;2022-12-07T13:30:02;4.50;;;2.13;;
21036;SDS011;10677;50.942;4.028;2022-12-07T13:32:42;5.57;;;2.33;;
21036;SDS011;10677;50.942;4.028;2022-12-07T13:37:58;6.13;;;1.70;;
21036;SDS011;10677;50.942;4.028;2022-12-07T13:40:27;5.53;;;1.70;;
21036;SDS011;10677;50.942;4.028;2022-12-07T13:43:00;3.55;;;1.35;;
21036;SDS011;10677;50.942;4.028;2022-12-07T13:45:31;3.42;;;1.50;;
21036;SDS011;10677;50.942;4.028;2022-12-07T13:51:01;4.22;;;1.65;;
21036;SDS011;10677;50.942;4.028;2022-12-07T13:53:28;4.32;;;1.40;;
21036;SDS011;10677;50.942;4.028;2022-12-07T13:55:58;4.85;;;1.27;;
21036;SDS011;10677;50.942;4.028;2022-12-07T13:58:26;7.50;;;1.90;;
21036;SDS011;10677;50.942;4.028;2022-12-07T14:00:54;4.05;;;1.42;;
21036;SDS011;10677;50.942;4.028;2022-12-07T14:03:23;4.60;;;1.20;;
21036;SDS011;10677;50.942;4.028;2022-12-07T14:06:03;7.18;;;1.60;;
21036;SDS011;10677;50.942;4.028;2022-12-07T14:09:07;4.38;;;1.65;;
21036;SDS011;10677;50.942;4.028;2022-12-07T14:11:45;9.57;;;2.15;;
21036;SDS011;10677;50.942;4.028;2022-12-07T14:14:29;7.55;;;2.60;;
21036;SDS011;10677;50.942;4.028;2022-12-07T14:17:00;4.93;;;1.63;;
21036;SDS011;10677;50.942;4.028;2022-12-07T14:22:36;3.60;;;1.63;;
21036;SDS011;10677;50.942;4.028;2022-12-07T14:27:38;3.28;;;1.60;;
21036;SDS011;10677;50.942;4.028;2022-12-07T14:30:05;4.35;;;2.10;;
21036;SDS011;10677;50.942;4.028;2022-12-07T14:32:31;5.57;;;2.13;;
21036;SDS011;10677;50.942;4.028;2022-12-07T14:35:07;5.47;;;2.58;;
21036;SDS011;10677;50.942;4.028;2022-12-07T14:37:35;6.15;;;2.00;;
21036;SDS011;10677;50.942;4.028;2022-12-07T14:40:02;4.35;;;1.70;;
21036;SDS011;10677;50.942;4.028;2022-12-07T14:42:29;9.73;;;2.33;;
21036;SDS011;10677;50.942;4.028;2022-12-07T14:44:56;5.85;;;2.70;;
21036;SDS011;10677;50.942;4.028;2022-12-07T14:47:23;5.45;;;2.65;;
21036;SDS011;10677;50.942;4.028;2022-12-07T14:49:50;7.55;;;2.38;;
21036;SDS011;10677;50.942;4.028;2022-12-07T14:52:20;6.75;;;2.80;;
21036;SDS011;10677;50.942;4.028;2022-12-07T14:54:49;9.43;;;3.53;;
21036;SDS011;10677;50.942;4.028;2022-12-07T14:57:15;7.53;;;3.25;;
21036;SDS011;10677;50.942;4.028;2022-12-07T14:59:41;7.15;;;3.78;;
21036;SDS011;10677;50.942;4.028;2022-12-07T15:02:07;7.45;;;3.90;;
21036;SDS011;10677;50.942;4.028;2022-12-07T15:04:36;10.77;;;3.47;;
21036;SDS011;10677;50.942;4.028;2022-12-07T15:07:04;9.63;;;3.55;;
21036;SDS011;10677;50.942;4.028;2022-12-07T15:09:31;9.65;;;2.90;;
21036;SDS011;10677;50.942;4.028;2022-12-07T15:11:57;9.48;;;3.80;;
21036;SDS011;10677;50.942;4.028;2022-12-07T15:14:24;10.50;;;3.03;;
21036;SDS011;10677;50.942;4.028;2022-12-07T15:16:50;7.78;;;3.22;;
21036;SDS011;10677;50.942;4.028;2022-12-07T15:19:25;8.20;;;3.67;;
21036;SDS011;10677;50.942;4.028;2022-12-07T15:21:52;12.68;;;5.03;;
21036;SDS011;10677;50.942;4.028;2022-12-07T15:24:18;8.93;;;4.65;;
21036;SDS011;10677;50.942;4.028;2022-12-07T15:26:45;10.15;;;4.10;;
21036;SDS011;10677;50.942;4.028;2022-12-07T15:29:14;11.95;;;4.13;;
21036;SDS011;10677;50.942;4.028;2022-12-07T15:31:40;9.07;;;3.72;;
21036;SDS011;10677;50.942;4.028;2022-12-07T15:34:06;7.55;;;3.72;;
21036;SDS011;10677;50.942;4.028;2022-12-07T15:36:32;9.35;;;4.07;;
21036;SDS011;10677;50.942;4.028;2022-12-07T15:38:58;11.93;;;4.43;;
21036;SDS011;10677;50.942;4.028;2022-12-07T15:41:25;13.70;;;4.72;;
21036;SDS011;10677;50.942;4.028;2022-12-07T15:43:51;8.93;;;3.78;;
21036;SDS011;10677;50.942;4.028;2022-12-07T15:46:36;13.90;;;5.00;;
21036;SDS011;10677;50.942;4.028;2022-12-07T15:49:06;11.95;;;5.68;;
21036;SDS011;10677;50.942;4.028;2022-12-07T15:51:34;14.98;;;6.75;;
21036;SDS011;10677;50.942;4.028;2022-12-07T15:57:02;9.18;;;5.13;;
21036;SDS011;10677;50.942;4.028;2022-12-07T15:59:28;12.07;;;4.75;;
21036;SDS011;10677;50.942;4.028;2022-12-07T16:01:54;7.90;;;4.47;;
21036;SDS011;10677;50.942;4.028;2022-12-07T16:04:20;13.23;;;5.93;;
21036;SDS011;10677;50.942;4.028;2022-12-07T16:06:45;19.38;;;9.30;;
21036;SDS011;10677;50.942;4.028;2022-12-07T16:09:11;16.30;;;7.15;;
21036;SDS011;10677;50.942;4.028;2022-12-07T16:11:37;14.45;;;7.78;;
21036;SDS011;10677;50.942;4.028;2022-12-07T16:14:03;20.55;;;9.82;;
21036;SDS011;10677;50.942;4.028;2022-12-07T16:16:31;16.52;;;10.40;;
21036;SDS011;10677;50.942;4.028;2022-12-07T16:18:56;16.05;;;8.43;;
21036;SDS011;10677;50.942;4.028;2022-12-07T16:21:22;19.45;;;9.10;;
21036;SDS011;10677;50.942;4.028;2022-12-07T16:23:48;17.83;;;8.30;;
21036;SDS011;10677;50.942;4.028;2022-12-07T16:26:14;16.83;;;7.75;;
21036;SDS011;10677;50.942;4.028;2022-12-07T16:28:44;15.13;;;7.75;;
21036;SDS011;10677;50.942;4.028;2022-12-07T16:31:11;18.00;;;6.82;;
21036;SDS011;10677;50.942;4.028;2022-12-07T16:33:39;17.77;;;7.40;;
21036;SDS011;10677;50.942;4.028;2022-12-07T16:36:06;19.77;;;7.82;;
21036;SDS011;10677;50.942;4.028;2022-12-07T16:38:33;11.80;;;5.22;;
21036;SDS011;10677;50.942;4.028;2022-12-07T16:40:59;12.25;;;5.10;;
21036;SDS011;10677;50.942;4.028;2022-12-07T16:43:25;11.48;;;5.13;;
21036;SDS011;10677;50.942;4.028;2022-12-07T16:45:51;11.60;;;4.90;;
21036;SDS011;10677;50.942;4.028;2022-12-07T16:48:16;9.63;;;4.13;;
21036;SDS011;10677;50.942;4.028;2022-12-07T16:50:42;13.65;;;4.97;;
21036;SDS011;10677;50.942;4.028;2022-12-07T16:53:10;11.60;;;5.07;;
21036;SDS011;10677;50.942;4.028;2022-12-07T16:55:37;14.68;;;7.03;;
21036;SDS011;10677;50.942;4.028;2022-12-07T16:58:04;15.00;;;7.47;;
21036;SDS011;10677;50.942;4.028;2022-12-07T17:00:31;15.63;;;7.32;;
21036;SDS011;10677;50.942;4.028;2022-12-07T17:02:56;13.13;;;7.25;;
21036;SDS011;10677;50.942;4.028;2022-12-07T17:05:22;15.52;;;7.35;;
21036;SDS011;10677;50.942;4.028;2022-12-07T17:07:49;13.63;;;6.57;;
21036;SDS011;10677;50.942;4.028;2022-12-07T17:10:15;11.48;;;5.03;;
21036;SDS011;10677;50.942;4.028;2022-12-07T17:12:41;12.65;;;5.95;;
21036;SDS011;10677;50.942;4.028;2022-12-07T17:15:08;12.65;;;6.32;;
21036;SDS011;10677;50.942;4.028;2022-12-07T17:17:53;9.52;;;6.10;;
21036;SDS011;10677;50.942;4.028;2022-12-07T17:20:22;11.05;;;5.45;;
21036;SDS011;10677;50.942;4.028;2022-12-07T17:22:50;13.73;;;5.97;;
21036;SDS011;10677;50.942;4.028;2022-12-07T17:25:18;11.43;;;6.65;;
21036;SDS011;10677;50.942;4.028;2022-12-07T17:27:44;18.52;;;10.73;;
21036;SDS011;10677;50.942;4.028;2022-12-07T17:30:10;15.73;;;8.57;;